sensor_id;sensor_type;location;lat;lon;timestamp;temperature;humidity
5808;DHT22;2930;42.678;23.312;2022-11-15T00:00:48;6.20;85.40
5808;DHT22;2930;42.678;23.312;2022-11-15T00:03:15;6.20;85.40
5808;DHT22;2930;42.678;23.312;2022-11-15T00:05:41;6.10;85.30
5808;DHT22;2930;42.678;23.312;2022-11-15T00:08:07;6.20;85.70
5808;DHT22;2930;42.678;23.312;2022-11-15T00:10:33;6.10;85.80
5808;DHT22;2930;42.678;23.312;2022-11-15T00:12:58;6.10;85.70
5808;DHT22;2930;42.678;23.312;2022-11-15T00:15:24;6.10;86.20
5808;DHT22;2930;42.678;23.312;2022-11-15T00:17:50;6.10;86.40
5808;DHT22;2930;42.678;23.312;2022-11-15T00:20:17;6.10;86.40
5808;DHT22;2930;42.678;23.312;2022-11-15T00:22:42;6.00;86.40
5808;DHT22;2930;42.678;23.312;2022-11-15T00:25:08;6.00;86.10
5808;DHT22;2930;42.678;23.312;2022-11-15T00:27:34;6.00;86.20
5808;DHT22;2930;42.678;23.312;2022-11-15T00:30:00;6.00;86.20
5808;DHT22;2930;42.678;23.312;2022-11-15T00:32:26;6.00;86.40
5808;DHT22;2930;42.678;23.312;2022-11-15T00:34:51;5.90;85.90
5808;DHT22;2930;42.678;23.312;2022-11-15T00:37:17;6.00;86.50
5808;DHT22;2930;42.678;23.312;2022-11-15T00:39:43;5.90;86.40
5808;DHT22;2930;42.678;23.312;2022-11-15T00:42:08;5.90;86.10
5808;DHT22;2930;42.678;23.312;2022-11-15T00:44:34;5.90;85.70
5808;DHT22;2930;42.678;23.312;2022-11-15T00:47:00;5.80;85.60
5808;DHT22;2930;42.678;23.312;2022-11-15T00:49:25;5.80;85.80
5808;DHT22;2930;42.678;23.312;2022-11-15T00:51:51;5.80;86.00
5808;DHT22;2930;42.678;23.312;2022-11-15T00:54:16;5.80;86.20
5808;DHT22;2930;42.678;23.312;2022-11-15T00:56:42;5.80;85.90
5808;DHT22;2930;42.678;23.312;2022-11-15T00:59:07;5.80;86.00
5808;DHT22;2930;42.678;23.312;2022-11-15T01:01:33;5.80;85.80
5808;DHT22;2930;42.678;23.312;2022-11-15T01:03:59;5.80;86.00
5808;DHT22;2930;42.678;23.312;2022-11-15T01:06:24;5.80;86.00
5808;DHT22;2930;42.678;23.312;2022-11-15T01:08:50;5.70;86.30
5808;DHT22;2930;42.678;23.312;2022-11-15T01:11:16;5.70;86.10
5808;DHT22;2930;42.678;23.312;2022-11-15T01:13:41;5.70;86.20
5808;DHT22;2930;42.678;23.312;2022-11-15T01:16:09;5.70;86.40
5808;DHT22;2930;42.678;23.312;2022-11-15T01:18:36;5.70;86.90
5808;DHT22;2930;42.678;23.312;2022-11-15T01:21:16;5.70;87.80
5808;DHT22;2930;42.678;23.312;2022-11-15T01:23:42;5.70;86.90
5808;DHT22;2930;42.678;23.312;2022-11-15T01:26:11;5.60;86.60
5808;DHT22;2930;42.678;23.312;2022-11-15T01:28:39;5.60;86.90
5808;DHT22;2930;42.678;23.312;2022-11-15T01:31:10;5.60;87.00
5808;DHT22;2930;42.678;23.312;2022-11-15T01:33:36;5.50;86.80
5808;DHT22;2930;42.678;23.312;2022-11-15T01:36:07;5.50;87.10
5808;DHT22;2930;42.678;23.312;2022-11-15T01:38:34;5.50;87.40
5808;DHT22;2930;42.678;23.312;2022-11-15T01:40:59;5.50;87.20
5808;DHT22;2930;42.678;23.312;2022-11-15T01:43:31;5.50;87.40
5808;DHT22;2930;42.678;23.312;2022-11-15T01:48:47;5.50;86.90
5808;DHT22;2930;42.678;23.312;2022-11-15T01:51:14;5.40;87.10
5808;DHT22;2930;42.678;23.312;2022-11-15T01:53:45;5.40;87.00
5808;DHT22;2930;42.678;23.312;2022-11-15T01:56:15;5.40;86.80
5808;DHT22;2930;42.678;23.312;2022-11-15T01:58:43;5.40;86.90
5808;DHT22;2930;42.678;23.312;2022-11-15T02:01:12;5.40;86.90
5808;DHT22;2930;42.678;23.312;2022-11-15T02:03:49;5.40;86.80
5808;DHT22;2930;42.678;23.312;2022-11-15T02:06:17;5.40;86.80
5808;DHT22;2930;42.678;23.312;2022-11-15T02:08:44;5.40;87.00
5808;DHT22;2930;42.678;23.312;2022-11-15T02:11:10;5.40;86.90
5808;DHT22;2930;42.678;23.312;2022-11-15T02:13:36;5.40;86.80
5808;DHT22;2930;42.678;23.312;2022-11-15T02:18:47;5.40;86.80
5808;DHT22;2930;42.678;23.312;2022-11-15T02:29:07;5.30;86.70
5808;DHT22;2930;42.678;23.312;2022-11-15T02:39:35;5.30;86.50
5808;DHT22;2930;42.678;23.312;2022-11-15T02:42:10;5.30;86.80
5808;DHT22;2930;42.678;23.312;2022-11-15T02:44:58;5.30;86.80
5808;DHT22;2930;42.678;23.312;2022-11-15T02:47:30;5.30;87.00
5808;DHT22;2930;42.678;23.312;2022-11-15T02:50:07;5.40;86.90
5808;DHT22;2930;42.678;23.312;2022-11-15T02:52:33;5.40;87.20
5808;DHT22;2930;42.678;23.312;2022-11-15T02:55:00;5.40;87.50
5808;DHT22;2930;42.678;23.312;2022-11-15T03:00:26;5.50;87.70
5808;DHT22;2930;42.678;23.312;2022-11-15T03:06:01;5.60;87.60
5808;DHT22;2930;42.678;23.312;2022-11-15T03:11:13;5.70;87.50
5808;DHT22;2930;42.678;23.312;2022-11-15T03:14:07;5.70;87.80
5808;DHT22;2930;42.678;23.312;2022-11-15T03:21:55;5.80;87.80
5808;DHT22;2930;42.678;23.312;2022-11-15T03:24:23;5.80;87.90
5808;DHT22;2930;42.678;23.312;2022-11-15T03:26:52;5.80;87.70
5808;DHT22;2930;42.678;23.312;2022-11-15T03:29:36;5.90;87.90
5808;DHT22;2930;42.678;23.312;2022-11-15T03:32:10;5.90;87.50
5808;DHT22;2930;42.678;23.312;2022-11-15T03:34:59;5.90;87.40
5808;DHT22;2930;42.678;23.312;2022-11-15T03:37:33;5.90;86.90
5808;DHT22;2930;42.678;23.312;2022-11-15T03:40:01;5.90;87.20
5808;DHT22;2930;42.678;23.312;2022-11-15T03:42:44;5.90;87.30
5808;DHT22;2930;42.678;23.312;2022-11-15T03:45:15;6.00;86.80
5808;DHT22;2930;42.678;23.312;2022-11-15T03:47:49;6.00;86.90
5808;DHT22;2930;42.678;23.312;2022-11-15T03:50:21;6.00;86.50
5808;DHT22;2930;42.678;23.312;2022-11-15T03:52:49;6.00;86.30
5808;DHT22;2930;42.678;23.312;2022-11-15T03:55:18;6.10;86.30
5808;DHT22;2930;42.678;23.312;2022-11-15T03:57:44;6.10;86.20
5808;DHT22;2930;42.678;23.312;2022-11-15T04:00:10;6.10;86.90
5808;DHT22;2930;42.678;23.312;2022-11-15T04:02:37;6.10;86.40
5808;DHT22;2930;42.678;23.312;2022-11-15T04:05:03;6.20;86.70
5808;DHT22;2930;42.678;23.312;2022-11-15T04:07:29;6.20;86.20
5808;DHT22;2930;42.678;23.312;2022-11-15T04:09:55;6.20;86.40
5808;DHT22;2930;42.678;23.312;2022-11-15T04:12:36;6.20;87.00
5808;DHT22;2930;42.678;23.312;2022-11-15T04:15:04;6.30;87.00
5808;DHT22;2930;42.678;23.312;2022-11-15T04:20:05;6.30;86.70
5808;DHT22;2930;42.678;23.312;2022-11-15T04:22:52;6.30;86.50
5808;DHT22;2930;42.678;23.312;2022-11-15T04:25:36;6.30;86.20
5808;DHT22;2930;42.678;23.312;2022-11-15T04:28:02;6.20;85.70
5808;DHT22;2930;42.678;23.312;2022-11-15T04:30:28;6.30;85.70
5808;DHT22;2930;42.678;23.312;2022-11-15T04:32:53;6.30;85.60
5808;DHT22;2930;42.678;23.312;2022-11-15T04:35:19;6.30;85.40
5808;DHT22;2930;42.678;23.312;2022-11-15T04:37:45;6.30;85.90
5808;DHT22;2930;42.678;23.312;2022-11-15T04:40:11;6.30;85.00
5808;DHT22;2930;42.678;23.312;2022-11-15T04:42:36;6.30;84.80
5808;DHT22;2930;42.678;23.312;2022-11-15T04:45:02;6.30;85.30
5808;DHT22;2930;42.678;23.312;2022-11-15T04:47:28;6.30;85.60
5808;DHT22;2930;42.678;23.312;2022-11-15T04:49:54;6.30;85.80
5808;DHT22;2930;42.678;23.312;2022-11-15T04:52:20;6.30;85.10
5808;DHT22;2930;42.678;23.312;2022-11-15T04:54:46;6.30;84.90
5808;DHT22;2930;42.678;23.312;2022-11-15T04:57:11;6.30;85.50
5808;DHT22;2930;42.678;23.312;2022-11-15T04:59:37;6.30;87.50
5808;DHT22;2930;42.678;23.312;2022-11-15T05:02:03;6.30;87.10
5808;DHT22;2930;42.678;23.312;2022-11-15T05:04:28;6.30;86.80
5808;DHT22;2930;42.678;23.312;2022-11-15T05:06:54;6.30;86.20
5808;DHT22;2930;42.678;23.312;2022-11-15T05:09:20;6.20;85.80
5808;DHT22;2930;42.678;23.312;2022-11-15T05:11:46;6.30;86.10
5808;DHT22;2930;42.678;23.312;2022-11-15T05:14:12;6.30;85.90
5808;DHT22;2930;42.678;23.312;2022-11-15T05:16:38;6.30;86.90
5808;DHT22;2930;42.678;23.312;2022-11-15T05:19:05;6.30;86.30
5808;DHT22;2930;42.678;23.312;2022-11-15T05:21:31;6.30;85.90
5808;DHT22;2930;42.678;23.312;2022-11-15T05:23:56;6.30;86.20
5808;DHT22;2930;42.678;23.312;2022-11-15T05:26:22;6.30;86.70
5808;DHT22;2930;42.678;23.312;2022-11-15T05:28:55;6.30;85.70
5808;DHT22;2930;42.678;23.312;2022-11-15T05:31:21;6.30;85.40
5808;DHT22;2930;42.678;23.312;2022-11-15T05:33:49;6.30;86.50
5808;DHT22;2930;42.678;23.312;2022-11-15T05:36:48;6.30;86.20
5808;DHT22;2930;42.678;23.312;2022-11-15T05:39:13;6.40;85.80
5808;DHT22;2930;42.678;23.312;2022-11-15T05:41:48;6.40;86.80
5808;DHT22;2930;42.678;23.312;2022-11-15T05:44:19;6.40;86.40
5808;DHT22;2930;42.678;23.312;2022-11-15T05:46:45;6.40;86.70
5808;DHT22;2930;42.678;23.312;2022-11-15T05:49:16;6.50;86.40
5808;DHT22;2930;42.678;23.312;2022-11-15T05:51:44;6.50;87.20
5808;DHT22;2930;42.678;23.312;2022-11-15T05:54:12;6.50;87.70
5808;DHT22;2930;42.678;23.312;2022-11-15T05:56:38;6.40;87.00
5808;DHT22;2930;42.678;23.312;2022-11-15T05:59:06;6.40;87.40
5808;DHT22;2930;42.678;23.312;2022-11-15T06:01:32;6.30;87.00
5808;DHT22;2930;42.678;23.312;2022-11-15T06:03:58;6.20;87.10
5808;DHT22;2930;42.678;23.312;2022-11-15T06:06:24;6.20;87.60
5808;DHT22;2930;42.678;23.312;2022-11-15T06:08:49;6.00;87.90
5808;DHT22;2930;42.678;23.312;2022-11-15T06:11:15;5.90;88.10
5808;DHT22;2930;42.678;23.312;2022-11-15T06:13:41;5.90;88.00
5808;DHT22;2930;42.678;23.312;2022-11-15T06:16:07;6.00;88.00
5808;DHT22;2930;42.678;23.312;2022-11-15T06:18:34;6.00;87.50
5808;DHT22;2930;42.678;23.312;2022-11-15T06:21:00;6.00;87.00
5808;DHT22;2930;42.678;23.312;2022-11-15T06:23:27;6.00;87.10
5808;DHT22;2930;42.678;23.312;2022-11-15T06:25:52;6.10;86.70
5808;DHT22;2930;42.678;23.312;2022-11-15T06:28:18;6.10;87.10
5808;DHT22;2930;42.678;23.312;2022-11-15T06:30:44;6.10;86.80
5808;DHT22;2930;42.678;23.312;2022-11-15T06:33:09;6.20;87.10
5808;DHT22;2930;42.678;23.312;2022-11-15T06:35:36;6.30;87.10
5808;DHT22;2930;42.678;23.312;2022-11-15T06:38:09;6.30;88.20
5808;DHT22;2930;42.678;23.312;2022-11-15T06:40:36;6.30;87.40
5808;DHT22;2930;42.678;23.312;2022-11-15T06:43:03;6.40;88.10
5808;DHT22;2930;42.678;23.312;2022-11-15T06:45:29;6.40;87.20
5808;DHT22;2930;42.678;23.312;2022-11-15T06:47:54;6.40;86.80
5808;DHT22;2930;42.678;23.312;2022-11-15T06:50:20;6.50;89.20
5808;DHT22;2930;42.678;23.312;2022-11-15T06:52:46;6.60;88.70
5808;DHT22;2930;42.678;23.312;2022-11-15T06:55:11;6.60;89.80
5808;DHT22;2930;42.678;23.312;2022-11-15T06:57:42;6.60;88.50
5808;DHT22;2930;42.678;23.312;2022-11-15T07:00:11;6.50;88.00
5808;DHT22;2930;42.678;23.312;2022-11-15T07:02:37;6.60;88.00
5808;DHT22;2930;42.678;23.312;2022-11-15T07:05:03;6.60;88.00
5808;DHT22;2930;42.678;23.312;2022-11-15T07:07:28;6.60;87.70
5808;DHT22;2930;42.678;23.312;2022-11-15T07:09:54;6.70;88.90
5808;DHT22;2930;42.678;23.312;2022-11-15T07:12:20;6.70;88.30
5808;DHT22;2930;42.678;23.312;2022-11-15T07:14:45;6.80;89.50
5808;DHT22;2930;42.678;23.312;2022-11-15T07:17:11;6.80;88.30
5808;DHT22;2930;42.678;23.312;2022-11-15T07:19:37;6.80;87.90
5808;DHT22;2930;42.678;23.312;2022-11-15T07:22:03;6.80;87.60
5808;DHT22;2930;42.678;23.312;2022-11-15T07:24:28;6.80;87.60
5808;DHT22;2930;42.678;23.312;2022-11-15T07:26:54;6.90;88.10
5808;DHT22;2930;42.678;23.312;2022-11-15T07:29:20;6.90;87.50
5808;DHT22;2930;42.678;23.312;2022-11-15T07:31:45;6.90;88.40
5808;DHT22;2930;42.678;23.312;2022-11-15T07:34:11;6.90;87.80
5808;DHT22;2930;42.678;23.312;2022-11-15T07:36:36;6.90;87.30
5808;DHT22;2930;42.678;23.312;2022-11-15T07:39:02;6.90;87.20
5808;DHT22;2930;42.678;23.312;2022-11-15T07:41:28;7.00;87.10
5808;DHT22;2930;42.678;23.312;2022-11-15T07:43:54;7.00;87.00
5808;DHT22;2930;42.678;23.312;2022-11-15T07:46:20;7.00;87.00
5808;DHT22;2930;42.678;23.312;2022-11-15T07:48:46;7.10;86.80
5808;DHT22;2930;42.678;23.312;2022-11-15T07:51:13;7.10;86.80
5808;DHT22;2930;42.678;23.312;2022-11-15T07:53:39;7.20;86.60
5808;DHT22;2930;42.678;23.312;2022-11-15T07:56:08;7.20;86.70
5808;DHT22;2930;42.678;23.312;2022-11-15T07:58:34;7.30;87.30
5808;DHT22;2930;42.678;23.312;2022-11-15T08:01:04;7.30;86.50
5808;DHT22;2930;42.678;23.312;2022-11-15T08:03:30;7.40;86.60
5808;DHT22;2930;42.678;23.312;2022-11-15T08:05:56;7.40;86.80
5808;DHT22;2930;42.678;23.312;2022-11-15T08:08:21;7.40;87.00
5808;DHT22;2930;42.678;23.312;2022-11-15T08:10:47;7.30;86.70
5808;DHT22;2930;42.678;23.312;2022-11-15T08:13:13;7.30;87.30
5808;DHT22;2930;42.678;23.312;2022-11-15T08:15:39;7.40;87.20
5808;DHT22;2930;42.678;23.312;2022-11-15T08:18:09;7.30;86.60
5808;DHT22;2930;42.678;23.312;2022-11-15T08:20:35;7.40;87.70
5808;DHT22;2930;42.678;23.312;2022-11-15T08:23:02;7.40;86.90
5808;DHT22;2930;42.678;23.312;2022-11-15T08:25:30;7.30;86.90
5808;DHT22;2930;42.678;23.312;2022-11-15T08:28:01;7.30;86.90
5808;DHT22;2930;42.678;23.312;2022-11-15T08:30:28;7.40;86.90
5808;DHT22;2930;42.678;23.312;2022-11-15T08:32:56;7.40;87.10
5808;DHT22;2930;42.678;23.312;2022-11-15T08:35:23;7.50;87.20
5808;DHT22;2930;42.678;23.312;2022-11-15T08:37:49;7.50;87.10
5808;DHT22;2930;42.678;23.312;2022-11-15T08:40:15;7.60;86.70
5808;DHT22;2930;42.678;23.312;2022-11-15T08:42:41;7.60;86.70
5808;DHT22;2930;42.678;23.312;2022-11-15T08:45:08;7.70;86.70
5808;DHT22;2930;42.678;23.312;2022-11-15T08:47:34;7.80;87.20
5808;DHT22;2930;42.678;23.312;2022-11-15T08:50:00;7.80;86.50
5808;DHT22;2930;42.678;23.312;2022-11-15T08:52:26;7.70;86.60
5808;DHT22;2930;42.678;23.312;2022-11-15T08:54:51;7.70;86.40
5808;DHT22;2930;42.678;23.312;2022-11-15T08:57:17;7.80;86.70
5808;DHT22;2930;42.678;23.312;2022-11-15T08:59:43;7.90;86.90
5808;DHT22;2930;42.678;23.312;2022-11-15T09:02:13;8.00;87.00
5808;DHT22;2930;42.678;23.312;2022-11-15T09:04:40;8.00;86.40
5808;DHT22;2930;42.678;23.312;2022-11-15T09:07:07;8.00;87.00
5808;DHT22;2930;42.678;23.312;2022-11-15T09:09:33;8.20;87.00
5808;DHT22;2930;42.678;23.312;2022-11-15T09:11:58;8.20;86.60
5808;DHT22;2930;42.678;23.312;2022-11-15T09:14:24;8.20;86.40
5808;DHT22;2930;42.678;23.312;2022-11-15T09:16:49;8.20;86.40
5808;DHT22;2930;42.678;23.312;2022-11-15T09:19:15;8.20;86.10
5808;DHT22;2930;42.678;23.312;2022-11-15T09:21:41;8.10;86.00
5808;DHT22;2930;42.678;23.312;2022-11-15T09:24:06;8.10;86.10
5808;DHT22;2930;42.678;23.312;2022-11-15T09:26:32;8.10;86.30
5808;DHT22;2930;42.678;23.312;2022-11-15T09:28:58;8.20;86.80
5808;DHT22;2930;42.678;23.312;2022-11-15T09:31:29;8.30;86.70
5808;DHT22;2930;42.678;23.312;2022-11-15T09:33:55;8.40;86.30
5808;DHT22;2930;42.678;23.312;2022-11-15T09:36:21;8.40;86.40
5808;DHT22;2930;42.678;23.312;2022-11-15T09:38:47;8.50;86.40
5808;DHT22;2930;42.678;23.312;2022-11-15T09:43:54;8.70;86.60
5808;DHT22;2930;42.678;23.312;2022-11-15T09:46:51;8.80;85.90
5808;DHT22;2930;42.678;23.312;2022-11-15T09:49:21;8.90;85.40
5808;DHT22;2930;42.678;23.312;2022-11-15T09:51:49;9.00;85.60
5808;DHT22;2930;42.678;23.312;2022-11-15T09:54:46;9.10;85.70
5808;DHT22;2930;42.678;23.312;2022-11-15T10:00:19;9.00;84.80
5808;DHT22;2930;42.678;23.312;2022-11-15T10:05:43;9.20;84.80
5808;DHT22;2930;42.678;23.312;2022-11-15T10:08:31;9.50;85.10
5808;DHT22;2930;42.678;23.312;2022-11-15T10:11:08;9.60;84.00
5808;DHT22;2930;42.678;23.312;2022-11-15T10:13:37;9.80;84.50
5808;DHT22;2930;42.678;23.312;2022-11-15T10:22:04;11.00;84.90
5808;DHT22;2930;42.678;23.312;2022-11-15T10:24:43;11.70;84.70
5808;DHT22;2930;42.678;23.312;2022-11-15T10:27:12;12.50;82.40
5808;DHT22;2930;42.678;23.312;2022-11-15T10:29:44;13.30;79.90
5808;DHT22;2930;42.678;23.312;2022-11-15T10:32:11;14.00;77.10
5808;DHT22;2930;42.678;23.312;2022-11-15T10:34:37;14.70;74.60
5808;DHT22;2930;42.678;23.312;2022-11-15T10:37:03;15.30;75.70
5808;DHT22;2930;42.678;23.312;2022-11-15T10:39:29;15.90;74.10
5808;DHT22;2930;42.678;23.312;2022-11-15T10:41:55;16.60;72.50
5808;DHT22;2930;42.678;23.312;2022-11-15T10:44:28;17.20;72.20
5808;DHT22;2930;42.678;23.312;2022-11-15T10:52:15;18.80;67.20
5808;DHT22;2930;42.678;23.312;2022-11-15T10:57:17;19.80;65.90
5808;DHT22;2930;42.678;23.312;2022-11-15T10:59:52;20.30;65.20
5808;DHT22;2930;42.678;23.312;2022-11-15T11:02:39;20.70;63.00
5808;DHT22;2930;42.678;23.312;2022-11-15T11:10:54;20.90;60.40
5808;DHT22;2930;42.678;23.312;2022-11-15T11:13:31;21.00;61.80
5808;DHT22;2930;42.678;23.312;2022-11-15T11:33:37;22.00;57.20
5808;DHT22;2930;42.678;23.312;2022-11-15T11:36:34;22.20;60.30
5808;DHT22;2930;42.678;23.312;2022-11-15T11:47:24;22.80;58.40
5808;DHT22;2930;42.678;23.312;2022-11-15T11:49:59;22.90;55.40
5808;DHT22;2930;42.678;23.312;2022-11-15T11:52:33;22.90;55.30
5808;DHT22;2930;42.678;23.312;2022-11-15T12:00:40;22.70;54.90
5808;DHT22;2930;42.678;23.312;2022-11-15T12:03:39;22.60;57.50
5808;DHT22;2930;42.678;23.312;2022-11-15T12:06:07;22.60;56.80
5808;DHT22;2930;42.678;23.312;2022-11-15T12:13:55;21.20;56.10
5808;DHT22;2930;42.678;23.312;2022-11-15T12:16:29;20.90;58.60
5808;DHT22;2930;42.678;23.312;2022-11-15T12:19:00;20.70;58.30
5808;DHT22;2930;42.678;23.312;2022-11-15T12:30:41;20.70;58.60
5808;DHT22;2930;42.678;23.312;2022-11-15T12:36:03;20.90;58.30
5808;DHT22;2930;42.678;23.312;2022-11-15T12:39:00;20.80;59.60
5808;DHT22;2930;42.678;23.312;2022-11-15T12:41:32;20.60;59.60
5808;DHT22;2930;42.678;23.312;2022-11-15T12:43:58;20.30;58.60
5808;DHT22;2930;42.678;23.312;2022-11-15T12:59:53;19.90;59.20
5808;DHT22;2930;42.678;23.312;2022-11-15T13:02:36;19.80;59.50
5808;DHT22;2930;42.678;23.312;2022-11-15T13:17:54;19.50;59.80
5808;DHT22;2930;42.678;23.312;2022-11-15T13:20:29;19.40;59.80
5808;DHT22;2930;42.678;23.312;2022-11-15T13:35:47;19.00;61.70
5808;DHT22;2930;42.678;23.312;2022-11-15T13:38:32;18.80;60.60
5808;DHT22;2930;42.678;23.312;2022-11-15T13:40:59;18.40;61.10
5808;DHT22;2930;42.678;23.312;2022-11-15T13:46:16;18.00;62.60
5808;DHT22;2930;42.678;23.312;2022-11-15T13:48:44;17.70;62.70
5808;DHT22;2930;42.678;23.312;2022-11-15T13:51:18;17.60;63.00
5808;DHT22;2930;42.678;23.312;2022-11-15T13:53:49;17.40;63.10
5808;DHT22;2930;42.678;23.312;2022-11-15T13:56:17;17.30;63.50
5808;DHT22;2930;42.678;23.312;2022-11-15T13:58:44;17.00;63.80
5808;DHT22;2930;42.678;23.312;2022-11-15T14:01:15;16.80;64.10
5808;DHT22;2930;42.678;23.312;2022-11-15T14:03:49;16.50;64.80
5808;DHT22;2930;42.678;23.312;2022-11-15T14:06:17;16.40;65.20
5808;DHT22;2930;42.678;23.312;2022-11-15T14:11:35;16.00;65.80
5808;DHT22;2930;42.678;23.312;2022-11-15T14:19:04;15.50;67.00
5808;DHT22;2930;42.678;23.312;2022-11-15T14:21:30;15.40;67.20
5808;DHT22;2930;42.678;23.312;2022-11-15T14:24:20;15.30;67.50
5808;DHT22;2930;42.678;23.312;2022-11-15T14:26:47;15.20;67.60
5808;DHT22;2930;42.678;23.312;2022-11-15T14:29:27;15.10;68.00
5808;DHT22;2930;42.678;23.312;2022-11-15T14:31:54;14.90;68.20
5808;DHT22;2930;42.678;23.312;2022-11-15T14:34:32;14.70;68.60
5808;DHT22;2930;42.678;23.312;2022-11-15T14:36:57;14.60;68.70
5808;DHT22;2930;42.678;23.312;2022-11-15T14:39:23;14.40;68.90
5808;DHT22;2930;42.678;23.312;2022-11-15T14:41:50;14.40;68.80
5808;DHT22;2930;42.678;23.312;2022-11-15T14:44:16;14.30;68.50
5808;DHT22;2930;42.678;23.312;2022-11-15T14:46:44;14.10;69.00
5808;DHT22;2930;42.678;23.312;2022-11-15T14:49:09;13.90;69.40
5808;DHT22;2930;42.678;23.312;2022-11-15T14:51:35;13.80;69.60
5808;DHT22;2930;42.678;23.312;2022-11-15T14:54:01;13.60;69.70
5808;DHT22;2930;42.678;23.312;2022-11-15T14:56:27;13.50;70.10
5808;DHT22;2930;42.678;23.312;2022-11-15T14:58:52;13.20;70.00
5808;DHT22;2930;42.678;23.312;2022-11-15T15:01:25;13.00;70.50
5808;DHT22;2930;42.678;23.312;2022-11-15T15:03:51;12.90;70.80
5808;DHT22;2930;42.678;23.312;2022-11-15T15:06:18;12.90;70.20
5808;DHT22;2930;42.678;23.312;2022-11-15T15:08:45;12.80;70.90
5808;DHT22;2930;42.678;23.312;2022-11-15T15:11:15;12.60;70.90
5808;DHT22;2930;42.678;23.312;2022-11-15T15:13:42;12.40;70.90
5808;DHT22;2930;42.678;23.312;2022-11-15T15:16:08;12.20;70.90
5808;DHT22;2930;42.678;23.312;2022-11-15T15:18:33;12.00;70.90
5808;DHT22;2930;42.678;23.312;2022-11-15T15:21:00;11.90;71.60
5808;DHT22;2930;42.678;23.312;2022-11-15T15:23:28;11.70;72.00
5808;DHT22;2930;42.678;23.312;2022-11-15T15:25:57;11.50;71.50
5808;DHT22;2930;42.678;23.312;2022-11-15T15:28:23;11.40;72.40
5808;DHT22;2930;42.678;23.312;2022-11-15T15:30:49;11.40;71.50
5808;DHT22;2930;42.678;23.312;2022-11-15T15:33:15;11.30;71.40
5808;DHT22;2930;42.678;23.312;2022-11-15T15:35:41;11.20;73.00
5808;DHT22;2930;42.678;23.312;2022-11-15T15:38:11;11.10;73.00
5808;DHT22;2930;42.678;23.312;2022-11-15T15:40:37;11.00;72.10
5808;DHT22;2930;42.678;23.312;2022-11-15T15:43:03;10.90;72.00
5808;DHT22;2930;42.678;23.312;2022-11-15T15:45:29;10.80;72.70
5808;DHT22;2930;42.678;23.312;2022-11-15T15:47:55;10.70;72.80
5808;DHT22;2930;42.678;23.312;2022-11-15T15:50:29;10.60;72.20
5808;DHT22;2930;42.678;23.312;2022-11-15T15:52:57;10.50;72.70
5808;DHT22;2930;42.678;23.312;2022-11-15T15:55:24;10.40;72.30
5808;DHT22;2930;42.678;23.312;2022-11-15T15:57:50;10.40;71.90
5808;DHT22;2930;42.678;23.312;2022-11-15T16:00:17;10.40;71.90
5808;DHT22;2930;42.678;23.312;2022-11-15T16:02:43;10.30;71.60
5808;DHT22;2930;42.678;23.312;2022-11-15T16:05:09;10.30;72.20
5808;DHT22;2930;42.678;23.312;2022-11-15T16:07:36;10.30;72.10
5808;DHT22;2930;42.678;23.312;2022-11-15T16:12:41;10.30;72.30
5808;DHT22;2930;42.678;23.312;2022-11-15T16:15:08;10.30;73.70
5808;DHT22;2930;42.678;23.312;2022-11-15T16:17:37;10.30;73.90
5808;DHT22;2930;42.678;23.312;2022-11-15T16:20:04;10.30;73.60
5808;DHT22;2930;42.678;23.312;2022-11-15T16:22:29;10.20;74.20
5808;DHT22;2930;42.678;23.312;2022-11-15T16:24:56;10.20;74.20
5808;DHT22;2930;42.678;23.312;2022-11-15T16:27:22;10.20;74.70
5808;DHT22;2930;42.678;23.312;2022-11-15T16:29:48;10.20;74.50
5808;DHT22;2930;42.678;23.312;2022-11-15T16:32:14;10.10;74.90
5808;DHT22;2930;42.678;23.312;2022-11-15T16:34:40;10.10;75.00
5808;DHT22;2930;42.678;23.312;2022-11-15T16:37:14;10.10;75.30
5808;DHT22;2930;42.678;23.312;2022-11-15T16:39:44;10.00;75.80
5808;DHT22;2930;42.678;23.312;2022-11-15T16:42:09;10.00;75.80
5808;DHT22;2930;42.678;23.312;2022-11-15T16:44:35;9.90;75.80
5808;DHT22;2930;42.678;23.312;2022-11-15T16:47:01;9.90;76.40
5808;DHT22;2930;42.678;23.312;2022-11-15T16:49:26;9.80;76.30
5808;DHT22;2930;42.678;23.312;2022-11-15T16:51:52;9.80;76.30
5808;DHT22;2930;42.678;23.312;2022-11-15T16:54:18;9.80;77.90
5808;DHT22;2930;42.678;23.312;2022-11-15T16:56:43;9.70;78.10
5808;DHT22;2930;42.678;23.312;2022-11-15T16:59:14;9.60;78.10
5808;DHT22;2930;42.678;23.312;2022-11-15T17:01:41;9.60;78.80
5808;DHT22;2930;42.678;23.312;2022-11-15T17:04:18;9.40;78.80
5808;DHT22;2930;42.678;23.312;2022-11-15T17:06:46;9.40;78.50
5808;DHT22;2930;42.678;23.312;2022-11-15T17:09:17;9.30;77.70
5808;DHT22;2930;42.678;23.312;2022-11-15T17:11:43;9.30;77.70
5808;DHT22;2930;42.678;23.312;2022-11-15T17:14:10;9.20;78.30
5808;DHT22;2930;42.678;23.312;2022-11-15T17:16:36;9.10;78.10
5808;DHT22;2930;42.678;23.312;2022-11-15T17:19:16;9.10;77.90
5808;DHT22;2930;42.678;23.312;2022-11-15T17:21:43;9.10;77.80
5808;DHT22;2930;42.678;23.312;2022-11-15T17:24:09;9.10;78.40
5808;DHT22;2930;42.678;23.312;2022-11-15T17:26:35;9.00;78.20
5808;DHT22;2930;42.678;23.312;2022-11-15T17:29:01;9.00;78.20
5808;DHT22;2930;42.678;23.312;2022-11-15T17:31:28;9.00;79.00
5808;DHT22;2930;42.678;23.312;2022-11-15T17:33:55;9.00;79.00
5808;DHT22;2930;42.678;23.312;2022-11-15T17:36:20;9.00;79.00
5808;DHT22;2930;42.678;23.312;2022-11-15T17:38:47;9.00;79.10
5808;DHT22;2930;42.678;23.312;2022-11-15T17:41:17;9.00;79.00
5808;DHT22;2930;42.678;23.312;2022-11-15T17:43:45;8.90;79.20
5808;DHT22;2930;42.678;23.312;2022-11-15T17:46:14;8.90;79.50
5808;DHT22;2930;42.678;23.312;2022-11-15T17:48:40;8.90;79.20
5808;DHT22;2930;42.678;23.312;2022-11-15T17:51:09;8.90;79.80
5808;DHT22;2930;42.678;23.312;2022-11-15T17:53:37;8.90;79.90
5808;DHT22;2930;42.678;23.312;2022-11-15T17:56:04;8.90;80.00
5808;DHT22;2930;42.678;23.312;2022-11-15T17:58:31;8.90;80.00
5808;DHT22;2930;42.678;23.312;2022-11-15T18:03:44;8.90;80.10
5808;DHT22;2930;42.678;23.312;2022-11-15T18:06:10;8.80;80.30
5808;DHT22;2930;42.678;23.312;2022-11-15T18:08:37;8.80;80.40
5808;DHT22;2930;42.678;23.312;2022-11-15T18:11:06;8.80;80.60
5808;DHT22;2930;42.678;23.312;2022-11-15T18:13:36;8.80;80.70
5808;DHT22;2930;42.678;23.312;2022-11-15T18:16:03;8.80;81.10
5808;DHT22;2930;42.678;23.312;2022-11-15T18:18:31;8.70;81.00
5808;DHT22;2930;42.678;23.312;2022-11-15T18:21:10;8.70;81.40
5808;DHT22;2930;42.678;23.312;2022-11-15T18:23:37;8.70;81.30
5808;DHT22;2930;42.678;23.312;2022-11-15T18:26:05;8.70;81.30
5808;DHT22;2930;42.678;23.312;2022-11-15T18:28:35;8.60;81.50
5808;DHT22;2930;42.678;23.312;2022-11-15T18:31:03;8.60;80.80
5808;DHT22;2930;42.678;23.312;2022-11-15T18:33:32;8.60;81.80
5808;DHT22;2930;42.678;23.312;2022-11-15T18:36:04;8.50;81.10
5808;DHT22;2930;42.678;23.312;2022-11-15T18:38:30;8.50;81.20
5808;DHT22;2930;42.678;23.312;2022-11-15T18:41:11;8.50;81.50
5808;DHT22;2930;42.678;23.312;2022-11-15T18:43:38;8.50;81.40
5808;DHT22;2930;42.678;23.312;2022-11-15T18:46:06;8.40;81.80
5808;DHT22;2930;42.678;23.312;2022-11-15T18:48:33;8.40;81.80
5808;DHT22;2930;42.678;23.312;2022-11-15T18:51:09;8.40;82.50
5808;DHT22;2930;42.678;23.312;2022-11-15T18:53:36;8.40;82.40
5808;DHT22;2930;42.678;23.312;2022-11-15T18:56:04;8.40;82.70